SWR92W LSZH-EDDH
Flight info
| Callsign | SWR92W |
|---|---|
| Flight time | 1h 6m |
| Altitude | 22000 |
| Route | DEGES Z1 ETAGO Z3 LBU/N0434F280 N851 RIMKI/N0408F240 N851 OSBIT P605 ELNAT/N0449F360 P605 NOLGO NOLGO6A |
| Aircraft | A321/M-SDE3FGHIRWY/LB1 |
Departure
| Time | 2026-05-01 09:39 |
|---|---|
| Airport | Zürich Airport (LSZH) |
Arrival
| Time | 2026-05-01 10:46 |
|---|---|
| Airport | Hamburg Helmut Schmidt Airport (EDDH) |
| Time | Latitude | Longitude | Altitude | Speed | Heading |
|---|---|---|---|---|---|
| 2026-05-01 09:22 | 47.45351 | 8.55701 | 1407 ft | 0 kts | 6° |
| 2026-05-01 09:32 | 47.45324 | 8.55698 | 1409 ft | 4 kts | 360° |
| 2026-05-01 09:32 | 47.45297 | 8.55701 | 1408 ft | 4 kts | 348° |
| 2026-05-01 09:33 | 47.45273 | 8.55714 | 1409 ft | 4 kts | 316° |
| 2026-05-01 09:33 | 47.45265 | 8.55732 | 1407 ft | 0 kts | 276° |
| 2026-05-01 09:34 | 47.45265 | 8.55725 | 1407 ft | 4 kts | 276° |
| 2026-05-01 09:35 | 47.45274 | 8.55614 | 1411 ft | 13 kts | 283° |
| 2026-05-01 09:35 | 47.45429 | 8.55472 | 1412 ft | 15 kts | 335° |
| 2026-05-01 09:35 | 47.45524 | 8.55407 | 1412 ft | 16 kts | 335° |
| 2026-05-01 09:36 | 47.45620 | 8.55342 | 1406 ft | 12 kts | 341° |
| 2026-05-01 09:36 | 47.45668 | 8.55428 | 1401 ft | 16 kts | 94° |
| 2026-05-01 09:36 | 47.45658 | 8.55585 | 1403 ft | 14 kts | 96° |
| 2026-05-01 09:36 | 47.45648 | 8.55719 | 1407 ft | 16 kts | 96° |
| 2026-05-01 09:37 | 47.45635 | 8.55915 | 1409 ft | 19 kts | 96° |
| 2026-05-01 09:37 | 47.45606 | 8.56314 | 1413 ft | 20 kts | 96° |
| 2026-05-01 09:37 | 47.45593 | 8.56503 | 1415 ft | 17 kts | 96° |
| 2026-05-01 09:38 | 47.45569 | 8.56858 | 1420 ft | 19 kts | 95° |
| 2026-05-01 09:38 | 47.45572 | 8.56975 | 1421 ft | 10 kts | 63° |
| 2026-05-01 09:38 | 47.45654 | 8.57001 | 1424 ft | 13 kts | 313° |
| 2026-05-01 09:39 | 47.45738 | 8.55986 | 1411 ft | 112 kts | 276° |
| 2026-05-01 09:39 | 47.45839 | 8.54530 | 1400 ft | 165 kts | 276° |
| 2026-05-01 09:39 | 47.45954 | 8.52842 | 2054 ft | 163 kts | 276° |
| 2026-05-01 09:40 | 47.46070 | 8.51190 | 2795 ft | 166 kts | 277° |
| 2026-05-01 09:40 | 47.46061 | 8.47450 | 3307 ft | 203 kts | 243° |
| 2026-05-01 09:40 | 47.45311 | 8.45582 | 3540 ft | 219 kts | 238° |
| 2026-05-01 09:41 | 47.44356 | 8.43751 | 3800 ft | 237 kts | 217° |
| 2026-05-01 09:41 | 47.41039 | 8.43321 | 4670 ft | 265 kts | 150° |
| 2026-05-01 09:41 | 47.39767 | 8.45293 | 5382 ft | 272 kts | 115° |
| 2026-05-01 09:42 | 47.39457 | 8.48036 | 6071 ft | 277 kts | 83° |
| 2026-05-01 09:42 | 47.39795 | 8.50848 | 6801 ft | 280 kts | 84° |
| 2026-05-01 09:42 | 47.39973 | 8.56611 | 8253 ft | 280 kts | 90° |
| 2026-05-01 09:43 | 47.39977 | 8.61396 | 9499 ft | 281 kts | 90° |
| 2026-05-01 09:43 | 47.39996 | 8.64210 | 10201 ft | 283 kts | 89° |
| 2026-05-01 09:43 | 47.40037 | 8.67263 | 10631 ft | 295 kts | 89° |
| 2026-05-01 09:44 | 47.40179 | 8.73724 | 10886 ft | 334 kts | 88° |
| 2026-05-01 09:44 | 47.40268 | 8.77247 | 11011 ft | 351 kts | 88° |
| 2026-05-01 09:44 | 47.40364 | 8.80895 | 11359 ft | 360 kts | 88° |
| 2026-05-01 09:45 | 47.40457 | 8.84608 | 11876 ft | 363 kts | 88° |
| 2026-05-01 09:45 | 47.41878 | 8.91698 | 12902 ft | 369 kts | 55° |
| 2026-05-01 09:45 | 47.43598 | 8.94471 | 13433 ft | 373 kts | 45° |
| 2026-05-01 09:46 | 47.45478 | 8.97131 | 13982 ft | 375 kts | 45° |
| 2026-05-01 09:46 | 47.47378 | 8.99797 | 14459 ft | 378 kts | 45° |
| 2026-05-01 09:46 | 47.49288 | 9.02474 | 14906 ft | 380 kts | 45° |
| 2026-05-01 09:46 | 47.51209 | 9.05175 | 15366 ft | 382 kts | 45° |
| 2026-05-01 09:47 | 47.53139 | 9.07902 | 15791 ft | 384 kts | 45° |
| 2026-05-01 09:47 | 47.55077 | 9.10651 | 16191 ft | 387 kts | 45° |
| 2026-05-01 09:47 | 47.57019 | 9.13415 | 16610 ft | 389 kts | 45° |
| 2026-05-01 09:47 | 47.58977 | 9.16206 | 17014 ft | 391 kts | 45° |
| 2026-05-01 09:48 | 47.60941 | 9.19004 | 17403 ft | 393 kts | 45° |
| 2026-05-01 09:48 | 47.62917 | 9.21819 | 17797 ft | 395 kts | 45° |
| 2026-05-01 09:48 | 47.64901 | 9.24647 | 18178 ft | 397 kts | 45° |
| 2026-05-01 09:48 | 47.66903 | 9.27501 | 18592 ft | 399 kts | 45° |
| 2026-05-01 09:49 | 47.68898 | 9.30350 | 18972 ft | 399 kts | 45° |
| 2026-05-01 09:49 | 47.70902 | 9.33220 | 19338 ft | 400 kts | 45° |
| 2026-05-01 09:49 | 47.72910 | 9.36107 | 19689 ft | 402 kts | 45° |
| 2026-05-01 09:49 | 47.74922 | 9.38996 | 20049 ft | 404 kts | 45° |
| 2026-05-01 09:50 | 47.77012 | 9.41791 | 20391 ft | 406 kts | 38° |
| 2026-05-01 09:50 | 47.79436 | 9.44032 | 20735 ft | 409 kts | 27° |
| 2026-05-01 09:50 | 47.81169 | 9.45106 | 20968 ft | 412 kts | 20° |
| 2026-05-01 09:50 | 47.84936 | 9.46222 | 21417 ft | 417 kts | 5° |
| 2026-05-01 09:51 | 47.87844 | 9.46259 | 21768 ft | 420 kts | 1° |
| 2026-05-01 09:51 | 47.90767 | 9.46243 | 22129 ft | 422 kts | 1° |
| 2026-05-01 09:51 | 47.93714 | 9.46237 | 22489 ft | 423 kts | 1° |
| 2026-05-01 09:51 | 47.96664 | 9.46236 | 22853 ft | 425 kts | 1° |
| 2026-05-01 09:52 | 47.99639 | 9.46236 | 23202 ft | 427 kts | 1° |
| 2026-05-01 09:52 | 48.02611 | 9.46233 | 23552 ft | 429 kts | 1° |
| 2026-05-01 09:52 | 48.05603 | 9.46226 | 23903 ft | 430 kts | 1° |
| 2026-05-01 09:52 | 48.08597 | 9.46218 | 24199 ft | 431 kts | 1° |
| 2026-05-01 09:53 | 48.11612 | 9.46210 | 24493 ft | 433 kts | 1° |
| 2026-05-01 09:53 | 48.14634 | 9.46198 | 24778 ft | 435 kts | 1° |
| 2026-05-01 09:53 | 48.17667 | 9.46191 | 25068 ft | 436 kts | 1° |
| 2026-05-01 09:53 | 48.20702 | 9.46194 | 25359 ft | 437 kts | 1° |
| 2026-05-01 09:54 | 48.23748 | 9.46201 | 25639 ft | 439 kts | 1° |
| 2026-05-01 09:54 | 48.26811 | 9.46207 | 25896 ft | 441 kts | 1° |
| 2026-05-01 09:54 | 48.29889 | 9.46208 | 26124 ft | 443 kts | 1° |
| 2026-05-01 09:54 | 48.32985 | 9.46209 | 26363 ft | 445 kts | 1° |
| 2026-05-01 09:55 | 48.36049 | 9.46211 | 26617 ft | 447 kts | 1° |
| 2026-05-01 09:55 | 48.39163 | 9.46209 | 26853 ft | 448 kts | 1° |
| 2026-05-01 09:55 | 48.42288 | 9.46208 | 27083 ft | 449 kts | 1° |
| 2026-05-01 09:55 | 48.45414 | 9.46212 | 27315 ft | 450 kts | 1° |
| 2026-05-01 09:56 | 48.48546 | 9.46218 | 27516 ft | 451 kts | 1° |
| 2026-05-01 09:56 | 48.51694 | 9.46223 | 27716 ft | 452 kts | 1° |
| 2026-05-01 09:56 | 48.54845 | 9.46219 | 27917 ft | 453 kts | 1° |
| 2026-05-01 09:56 | 48.57998 | 9.46193 | 28188 ft | 452 kts | 0° |
| 2026-05-01 09:57 | 48.61144 | 9.46152 | 28439 ft | 451 kts | 0° |
| 2026-05-01 09:57 | 48.64276 | 9.46105 | 28698 ft | 450 kts | 0° |
| 2026-05-01 09:57 | 48.67404 | 9.46060 | 28951 ft | 450 kts | 0° |
| 2026-05-01 09:57 | 48.70533 | 9.45901 | 29201 ft | 450 kts | 355° |
| 2026-05-01 09:58 | 48.73618 | 9.45084 | 29444 ft | 450 kts | 346° |
| 2026-05-01 09:58 | 48.76587 | 9.43544 | 29693 ft | 451 kts | 338° |
| 2026-05-01 09:58 | 48.79469 | 9.41675 | 29940 ft | 451 kts | 338° |
| 2026-05-01 09:58 | 48.82348 | 9.39812 | 30182 ft | 450 kts | 338° |
| 2026-05-01 09:59 | 48.85197 | 9.37972 | 30335 ft | 447 kts | 339° |
| 2026-05-01 09:59 | 48.88078 | 9.36114 | 30349 ft | 442 kts | 339° |
| 2026-05-01 09:59 | 48.93940 | 9.33837 | 30343 ft | 436 kts | 356° |
| 2026-05-01 10:00 | 48.99997 | 9.33341 | 30360 ft | 436 kts | 358° |
| 2026-05-01 10:00 | 49.06059 | 9.32858 | 30351 ft | 436 kts | 358° |
| 2026-05-01 10:01 | 49.12120 | 9.32359 | 30348 ft | 436 kts | 358° |
| 2026-05-01 10:01 | 49.18211 | 9.31873 | 30336 ft | 436 kts | 358° |
| 2026-05-01 10:02 | 49.24273 | 9.31396 | 30343 ft | 437 kts | 358° |
| 2026-05-01 10:02 | 49.30316 | 9.30916 | 30359 ft | 437 kts | 358° |
| 2026-05-01 10:03 | 49.36388 | 9.30666 | 30347 ft | 436 kts | 6° |
| 2026-05-01 10:03 | 49.42420 | 9.31569 | 30363 ft | 436 kts | 6° |
| 2026-05-01 10:04 | 49.48463 | 9.32465 | 30363 ft | 435 kts | 6° |
| 2026-05-01 10:04 | 49.54491 | 9.33338 | 30374 ft | 435 kts | 6° |
| 2026-05-01 10:05 | 49.60526 | 9.34230 | 30383 ft | 435 kts | 6° |
| 2026-05-01 10:05 | 49.66562 | 9.35134 | 30376 ft | 435 kts | 6° |
| 2026-05-01 10:06 | 49.72534 | 9.36492 | 30368 ft | 434 kts | 17° |
| 2026-05-01 10:06 | 49.78021 | 9.40555 | 30374 ft | 433 kts | 36° |
| 2026-05-01 10:07 | 49.82658 | 9.46493 | 30382 ft | 433 kts | 40° |
| 2026-05-01 10:07 | 49.87285 | 9.52487 | 30386 ft | 434 kts | 39° |
| 2026-05-01 10:08 | 49.94225 | 9.61516 | 30381 ft | 434 kts | 39° |
| 2026-05-01 10:09 | 49.98849 | 9.67581 | 30379 ft | 435 kts | 40° |
| 2026-05-01 10:09 | 50.03556 | 9.73478 | 30380 ft | 434 kts | 32° |
| 2026-05-01 10:10 | 50.09111 | 9.77047 | 30370 ft | 435 kts | 12° |
| 2026-05-01 10:10 | 50.18167 | 9.77162 | 30377 ft | 436 kts | 357° |
| 2026-05-01 10:11 | 50.24234 | 9.76552 | 30385 ft | 436 kts | 358° |
| 2026-05-01 10:11 | 50.30305 | 9.75955 | 30390 ft | 437 kts | 358° |
| 2026-05-01 10:12 | 50.35461 | 9.76183 | 30305 ft | 430 kts | 11° |
| 2026-05-01 10:12 | 50.41473 | 9.75930 | 30415 ft | 438 kts | 349° |
| 2026-05-01 10:13 | 50.44467 | 9.75030 | 30409 ft | 437 kts | 353° |
| 2026-05-01 10:13 | 50.50520 | 9.74168 | 30402 ft | 437 kts | 358° |
| 2026-05-01 10:14 | 50.59636 | 9.73354 | 30404 ft | 437 kts | 356° |
| 2026-05-01 10:14 | 50.65695 | 9.72507 | 30394 ft | 437 kts | 355° |
| 2026-05-01 10:15 | 50.71752 | 9.71662 | 30412 ft | 437 kts | 356° |
| 2026-05-01 10:15 | 50.77780 | 9.71038 | 30407 ft | 437 kts | 357° |
| 2026-05-01 10:16 | 50.83899 | 9.70466 | 30401 ft | 437 kts | 357° |
| 2026-05-01 10:17 | 50.92966 | 9.69803 | 30401 ft | 437 kts | 359° |
| 2026-05-01 10:17 | 51.02088 | 9.69659 | 30392 ft | 438 kts | 0° |
| 2026-05-01 10:18 | 51.11270 | 9.69413 | 30401 ft | 438 kts | 359° |
| 2026-05-01 10:19 | 51.17312 | 9.69200 | 30403 ft | 437 kts | 359° |
| 2026-05-01 10:19 | 51.23385 | 9.69561 | 30400 ft | 436 kts | 6° |
| 2026-05-01 10:20 | 51.32454 | 9.71044 | 30394 ft | 436 kts | 6° |
| 2026-05-01 10:20 | 51.38503 | 9.72029 | 30398 ft | 437 kts | 6° |
| 2026-05-01 10:21 | 51.47587 | 9.73513 | 30410 ft | 437 kts | 6° |
| 2026-05-01 10:22 | 51.56668 | 9.75178 | 30411 ft | 438 kts | 7° |
| 2026-05-01 10:23 | 51.65748 | 9.76954 | 30410 ft | 438 kts | 8° |
| 2026-05-01 10:23 | 51.74849 | 9.78686 | 30410 ft | 439 kts | 7° |
| 2026-05-01 10:24 | 51.86980 | 9.80996 | 30410 ft | 439 kts | 7° |
| 2026-05-01 10:25 | 51.99134 | 9.83341 | 30396 ft | 440 kts | 7° |
| 2026-05-01 10:26 | 52.05226 | 9.84531 | 30399 ft | 441 kts | 8° |
| 2026-05-01 10:27 | 52.17387 | 9.86905 | 30412 ft | 439 kts | 7° |
| 2026-05-01 10:28 | 52.26456 | 9.88985 | 30186 ft | 438 kts | 15° |
| 2026-05-01 10:28 | 52.32338 | 9.91597 | 29616 ft | 438 kts | 15° |
| 2026-05-01 10:28 | 52.35281 | 9.92901 | 29333 ft | 440 kts | 15° |
| 2026-05-01 10:29 | 52.41220 | 9.95522 | 28686 ft | 440 kts | 15° |
| 2026-05-01 10:29 | 52.44159 | 9.96818 | 28044 ft | 436 kts | 16° |
| 2026-05-01 10:30 | 52.50024 | 9.98647 | 26160 ft | 422 kts | 358° |
| 2026-05-01 10:30 | 52.55780 | 9.96710 | 23999 ft | 426 kts | 347° |
| 2026-05-01 10:31 | 52.61474 | 9.94356 | 21611 ft | 417 kts | 348° |
| 2026-05-01 10:31 | 52.67044 | 9.92076 | 19433 ft | 408 kts | 347° |
| 2026-05-01 10:32 | 52.72482 | 9.89846 | 17226 ft | 398 kts | 348° |
| 2026-05-01 10:32 | 52.75157 | 9.88743 | 16193 ft | 393 kts | 348° |
| 2026-05-01 10:32 | 52.80444 | 9.86552 | 15188 ft | 391 kts | 348° |
| 2026-05-01 10:33 | 52.85698 | 9.84373 | 14242 ft | 387 kts | 348° |
| 2026-05-01 10:33 | 52.90911 | 9.82208 | 13214 ft | 384 kts | 348° |
| 2026-05-01 10:34 | 52.93484 | 9.81132 | 12686 ft | 379 kts | 348° |
| 2026-05-01 10:34 | 52.96030 | 9.80065 | 12187 ft | 376 kts | 348° |
| 2026-05-01 10:34 | 52.98562 | 9.79002 | 11622 ft | 373 kts | 348° |
| 2026-05-01 10:35 | 53.03464 | 9.76941 | 10888 ft | 343 kts | 348° |
| 2026-05-01 10:35 | 53.05694 | 9.75996 | 10756 ft | 320 kts | 348° |
| 2026-05-01 10:35 | 53.07804 | 9.75107 | 10473 ft | 306 kts | 348° |
| 2026-05-01 10:35 | 53.09857 | 9.74251 | 10225 ft | 302 kts | 349° |
| 2026-05-01 10:36 | 53.13918 | 9.72559 | 9821 ft | 300 kts | 348° |
| 2026-05-01 10:36 | 53.15939 | 9.71710 | 9676 ft | 300 kts | 348° |
| 2026-05-01 10:36 | 53.17967 | 9.70857 | 9554 ft | 299 kts | 348° |
| 2026-05-01 10:37 | 53.19984 | 9.70006 | 9437 ft | 298 kts | 348° |
| 2026-05-01 10:37 | 53.23974 | 9.68321 | 9078 ft | 298 kts | 348° |
| 2026-05-01 10:37 | 53.25969 | 9.67478 | 8629 ft | 295 kts | 348° |
| 2026-05-01 10:38 | 53.27952 | 9.66639 | 8160 ft | 292 kts | 348° |
| 2026-05-01 10:38 | 53.29939 | 9.65794 | 7695 ft | 291 kts | 348° |
| 2026-05-01 10:38 | 53.31889 | 9.64962 | 7233 ft | 288 kts | 348° |
| 2026-05-01 10:38 | 53.33827 | 9.64135 | 6772 ft | 287 kts | 347° |
| 2026-05-01 10:39 | 53.35753 | 9.63315 | 6307 ft | 285 kts | 347° |
| 2026-05-01 10:39 | 53.37652 | 9.62505 | 5842 ft | 283 kts | 347° |
| 2026-05-01 10:39 | 53.39529 | 9.61698 | 5508 ft | 272 kts | 347° |
| 2026-05-01 10:39 | 53.41329 | 9.61168 | 5347 ft | 255 kts | 1° |
| 2026-05-01 10:40 | 53.43107 | 9.61517 | 5224 ft | 267 kts | 18° |
| 2026-05-01 10:40 | 53.44740 | 9.62739 | 5117 ft | 247 kts | 37° |
| 2026-05-01 10:40 | 53.45998 | 9.64594 | 4909 ft | 236 kts | 52° |
| 2026-05-01 10:40 | 53.47036 | 9.66656 | 4593 ft | 225 kts | 53° |
| 2026-05-01 10:41 | 53.48021 | 9.68633 | 4305 ft | 217 kts | 53° |
| 2026-05-01 10:41 | 53.48984 | 9.70565 | 4028 ft | 216 kts | 52° |
| 2026-05-01 10:41 | 53.50903 | 9.74407 | 3451 ft | 211 kts | 53° |
| 2026-05-01 10:42 | 53.51824 | 9.76248 | 3182 ft | 201 kts | 53° |
| 2026-05-01 10:42 | 53.52701 | 9.78004 | 2901 ft | 192 kts | 52° |
| 2026-05-01 10:42 | 53.53548 | 9.79698 | 2644 ft | 187 kts | 53° |
| 2026-05-01 10:42 | 53.54364 | 9.81339 | 2406 ft | 180 kts | 54° |
| 2026-05-01 10:43 | 53.55163 | 9.82947 | 2166 ft | 178 kts | 53° |
| 2026-05-01 10:43 | 53.55927 | 9.84477 | 1934 ft | 163 kts | 52° |
| 2026-05-01 10:43 | 53.56628 | 9.85895 | 1739 ft | 155 kts | 53° |
| 2026-05-01 10:43 | 53.57305 | 9.87253 | 1497 ft | 149 kts | 55° |
| 2026-05-01 10:44 | 53.57975 | 9.88602 | 1340 ft | 149 kts | 54° |
| 2026-05-01 10:44 | 53.58642 | 9.89940 | 1101 ft | 148 kts | 50° |
| 2026-05-01 10:44 | 53.59301 | 9.91272 | 903 ft | 149 kts | 53° |
| 2026-05-01 10:44 | 53.59959 | 9.92599 | 689 ft | 147 kts | 52° |
| 2026-05-01 10:45 | 53.60613 | 9.93916 | 490 ft | 145 kts | 52° |
| 2026-05-01 10:45 | 53.61259 | 9.95219 | 302 ft | 143 kts | 51° |
| 2026-05-01 10:45 | 53.61894 | 9.96508 | 110 ft | 143 kts | 50° |
| 2026-05-01 10:45 | 53.62509 | 9.97745 | 42 ft | 129 kts | 50° |
| 2026-05-01 10:46 | 53.62950 | 9.98646 | 45 ft | 73 kts | 50° |
| 2026-05-01 10:46 | 53.63206 | 9.99161 | 47 ft | 52 kts | 50° |
| 2026-05-01 10:46 | 53.63425 | 9.99608 | 48 ft | 47 kts | 50° |
| 2026-05-01 10:46 | 53.63532 | 9.99850 | 50 ft | 14 kts | 81° |
| 2026-05-01 10:47 | 53.63522 | 9.99894 | 49 ft | 12 kts | 125° |